»·PEaware :: N365ES KSNA-KBUR

N365ES :: KSNA-KBUR

FLIGHT INFORMATION

Flight Status: Arrived
Operator: Privately registered:
United States
More flights under this callsign
Pilot: Nihar G. (33054)
Aircraft: CESSNA 172 SKYHAWK
(C172)
More flights by this aircraft type
Origin: KSNA John Wayne-Orange Co
United States
Destination: KBUR Bob Hope-Burbank
United States
More flights between these airports :: More routes between these airports
Route: SLI V23 POPPR SMO125 SMO SMO311 SILEX
File this flight plan on PilotEdge
Remarks:
Altitude:
(Current/Filed)
4,000ft
Speed:
(Current/Filed)
115kts
Departed: 09-Jan-21 02:27 PM
Arrived: 09-Jan-21 03:08 PM
Distance/Time
Traveled:
40nm/0:41
Distance/Time
To Go:
Arrived

Flight Plot

Page will automatically refresh every two minutes.


Map Options




Map Legend


Flown Route
Filed Route
Departure Airport
Arrival Airport
Navaid (VOR, NDB)
Fix

Horizontal Profiles

Position Reports

Time Latitude Longitude Heading Altitude Ground
Speed
09-Jan-21 14:07 33.675627 -117.871061 40 60ft 0kts
09-Jan-21 14:08 33.675627 -117.871061 40 60ft 0kts
09-Jan-21 14:10 33.675627 -117.871061 40 60ft 0kts
09-Jan-21 14:10 33.675627 -117.871061 40 60ft 0kts
09-Jan-21 14:11 33.675627 -117.871061 40 60ft 0kts
09-Jan-21 14:12 33.675627 -117.871061 40 60ft 0kts
09-Jan-21 14:13 33.675627 -117.871061 40 60ft 0kts
09-Jan-21 14:14 33.675627 -117.871061 40 60ft 0kts
09-Jan-21 14:15 33.675627 -117.871061 40 60ft 0kts
09-Jan-21 14:16 33.675627 -117.871061 40 60ft 0kts
09-Jan-21 14:17 33.675627 -117.871061 40 60ft 0kts
09-Jan-21 14:18 33.675627 -117.871061 40 60ft 0kts
09-Jan-21 14:19 33.675627 -117.871061 40 60ft 0kts
09-Jan-21 14:20 33.675627 -117.871061 40 60ft 0kts
09-Jan-21 14:21 33.675627 -117.871061 40 60ft 0kts
09-Jan-21 14:22 33.676278 -117.869947 29 60ft 19kts
09-Jan-21 14:23 33.681198 -117.866416 115 60ft 0kts
09-Jan-21 14:24 33.681198 -117.866416 115 60ft 0kts
09-Jan-21 14:25 33.681157 -117.866324 119 60ft 6kts
09-Jan-21 14:26 33.670672 -117.873100 211 457ft 71kts
09-Jan-21 14:27 33.659148 -117.891959 240 1381ft 72kts
09-Jan-21 14:28 33.649926 -117.912691 236 2253ft 70kts
09-Jan-21 14:29 33.640615 -117.932809 273 3046ft 72kts
09-Jan-21 14:30 33.650219 -117.954119 282 3802ft 73kts
09-Jan-21 14:31 33.657532 -117.983066 283 4124ft 105kts
09-Jan-21 14:32 33.668545 -118.017860 296 3939ft 111kts
09-Jan-21 14:33 33.677469 -118.052114 289 3930ft 106kts
09-Jan-21 14:34 33.695938 -118.080237 312 3897ft 108kts
09-Jan-21 14:35 33.710224 -118.111584 301 3877ft 106kts
09-Jan-21 14:36 33.716953 -118.145924 281 3937ft 106kts
09-Jan-21 14:37 33.724039 -118.180586 309 3929ft 110kts
09-Jan-21 14:38 33.744644 -118.206912 306 4029ft 110kts
09-Jan-21 14:39 33.767248 -118.232206 320 4117ft 112kts
09-Jan-21 14:40 33.790958 -118.256808 322 4166ft 112kts
09-Jan-21 14:41 33.817902 -118.279656 327 3977ft 118kts
09-Jan-21 14:42 33.845711 -118.300096 314 3935ft 115kts
09-Jan-21 14:43 33.866578 -118.329836 320 3954ft 112kts
09-Jan-21 14:44 33.890125 -118.353273 318 4096ft 108kts
09-Jan-21 14:45 33.914624 -118.373730 333 4162ft 110kts
09-Jan-21 14:46 33.941041 -118.395070 321 4037ft 116kts
09-Jan-21 14:47 33.968780 -118.414290 317 3997ft 112kts
09-Jan-21 14:48 33.991068 -118.441279 310 3947ft 114kts
09-Jan-21 14:49 34.015171 -118.466174 311 3965ft 112kts
09-Jan-21 14:50 34.037020 -118.493384 311 3978ft 113kts
09-Jan-21 14:51 34.059857 -118.520387 311 3977ft 114kts
09-Jan-21 14:52 34.082644 -118.547248 311 3978ft 113kts
09-Jan-21 14:53 34.105063 -118.573933 311 3979ft 111kts
09-Jan-21 14:54 34.126937 -118.599866 311 3981ft 108kts
09-Jan-21 14:55 34.146380 -118.625959 319 4164ft 90kts
09-Jan-21 14:56 34.165066 -118.633805 58 4068ft 82kts
09-Jan-21 14:57 34.176180 -118.610147 58 4033ft 78kts
09-Jan-21 14:58 34.186838 -118.580235 59 4074ft 101kts
09-Jan-21 14:59 34.196871 -118.551085 68 3961ft 83kts
09-Jan-21 15:00 34.198439 -118.521920 94 3588ft 94kts
09-Jan-21 15:01 34.198999 -118.492941 76 3141ft 84kts
09-Jan-21 15:02 34.197305 -118.467952 94 2438ft 74kts
09-Jan-21 15:03 34.199818 -118.444742 70 1784ft 66kts
09-Jan-21 15:04 34.196500 -118.422450 97 1220ft 62kts
09-Jan-21 15:05 34.198139 -118.400322 80 1094ft 74kts
09-Jan-21 15:06 34.198007 -118.375669 88 924ft 67kts
09-Jan-21 15:07 34.197539 -118.360355 150 715ft 19kts
09-Jan-21 15:08 34.197010 -118.360296 187 714ft 0kts
09-Jan-21 15:09 34.195872 -118.359365 189 710ft 0kts
09-Jan-21 15:10 34.195872 -118.359365 189 710ft 0kts

Navigation Log

Ident Type
Flight plan parsing failed, navigation log unavailable